createdAt,value
2022-08-19T00:02:05.465Z,20.89
2022-08-19T00:04:37.708Z,20.88
2022-08-19T00:07:07.641Z,20.93
2022-08-19T00:09:35.985Z,21.00
2022-08-19T00:12:04.918Z,21.14
2022-08-19T00:14:33.257Z,21.19
2022-08-19T00:17:02.003Z,21.21
2022-08-19T00:19:30.897Z,21.23
2022-08-19T00:21:59.046Z,21.18
2022-08-19T00:24:28.228Z,21.12
2022-08-19T00:26:57.547Z,21.02
2022-08-19T00:29:45.673Z,21.05
2022-08-19T00:32:13.992Z,21.04
2022-08-19T00:34:46.341Z,21.02
2022-08-19T00:37:14.516Z,21.03
2022-08-19T00:39:42.732Z,21.11
2022-08-19T00:42:11.007Z,21.17
2022-08-19T00:44:39.157Z,21.24
2022-08-19T00:47:07.646Z,21.33
2022-08-19T00:49:52.259Z,21.34
2022-08-19T00:52:24.994Z,21.39
2022-08-19T00:54:54.347Z,21.42
2022-08-19T00:57:35.910Z,21.41
2022-08-19T01:00:13.138Z,21.43
2022-08-19T01:02:42.935Z,21.43
2022-08-19T01:05:21.793Z,21.44
2022-08-19T01:07:53.865Z,21.37
2022-08-19T01:10:27.758Z,21.35
2022-08-19T01:12:59.684Z,21.36
2022-08-19T01:15:36.381Z,21.36
2022-08-19T01:18:09.275Z,21.30
2022-08-19T01:20:37.751Z,21.27
2022-08-19T01:23:06.152Z,21.25
2022-08-19T01:25:48.298Z,21.21
2022-08-19T01:28:39.788Z,21.14
2022-08-19T01:31:26.777Z,21.11
2022-08-19T01:33:57.461Z,21.07
2022-08-19T01:36:33.035Z,21.03
2022-08-19T01:39:03.945Z,21.05
2022-08-19T01:41:32.521Z,21.02
2022-08-19T01:44:17.788Z,21.03
2022-08-19T01:46:49.555Z,21.01
2022-08-19T01:49:20.735Z,21.02
2022-08-19T01:51:50.531Z,21.03
2022-08-19T01:54:23.027Z,21.05
2022-08-19T01:57:15.828Z,21.04
2022-08-19T01:59:45.445Z,21.05
2022-08-19T02:02:14.792Z,21.04
2022-08-19T02:04:43.122Z,20.99
2022-08-19T02:07:11.270Z,20.90
2022-08-19T02:09:42.651Z,20.86
2022-08-19T02:12:10.918Z,20.86
2022-08-19T02:14:39.172Z,20.84
2022-08-19T02:17:10.423Z,20.86
2022-08-19T02:19:40.970Z,20.83
2022-08-19T02:22:09.342Z,20.77
2022-08-19T02:24:37.620Z,20.71
2022-08-19T02:27:06.816Z,20.63
2022-08-19T02:29:35.009Z,20.52
2022-08-19T02:32:03.268Z,20.48
2022-08-19T02:34:31.977Z,20.48
2022-08-19T02:37:03.656Z,20.45
2022-08-19T02:39:32.323Z,20.43
2022-08-19T02:42:00.567Z,20.44
2022-08-19T02:44:31.825Z,20.40
2022-08-19T02:47:00.384Z,20.49
2022-08-19T02:49:28.678Z,20.50
2022-08-19T02:51:56.901Z,20.51
2022-08-19T02:54:25.032Z,20.54
2022-08-19T02:56:53.215Z,20.51
2022-08-19T02:59:23.044Z,20.50
2022-08-19T03:01:51.433Z,20.50
2022-08-19T03:04:20.405Z,20.40
2022-08-19T03:06:49.275Z,20.37
2022-08-19T03:09:19.628Z,20.37
2022-08-19T03:11:48.562Z,20.34
2022-08-19T03:14:19.040Z,20.31
2022-08-19T03:16:50.926Z,20.18
2022-08-19T03:19:22.410Z,20.09
2022-08-19T03:21:51.373Z,20.05
2022-08-19T03:24:20.263Z,19.97
2022-08-19T03:26:52.314Z,19.93
2022-08-19T03:29:30.272Z,19.87
2022-08-19T03:32:06.591Z,19.82
2022-08-19T03:34:37.186Z,19.74
2022-08-19T03:37:10.911Z,19.71
2022-08-19T03:39:41.336Z,19.64
2022-08-19T03:42:47.787Z,19.72
2022-08-19T03:44:59.729Z,19.71
2022-08-19T03:47:27.944Z,19.65
2022-08-19T03:49:56.497Z,19.64
2022-08-19T03:52:24.721Z,19.62
2022-08-19T03:54:52.974Z,19.64
2022-08-19T03:57:21.588Z,19.74
2022-08-19T03:59:56.045Z,19.79
2022-08-19T04:02:41.722Z,19.83
2022-08-19T04:05:10.132Z,19.88
2022-08-19T04:07:38.378Z,19.94
2022-08-19T04:10:06.951Z,20.00
2022-08-19T04:12:40.400Z,20.03
2022-08-19T04:15:09.875Z,20.08
2022-08-19T04:17:38.006Z,20.08
2022-08-19T04:20:07.060Z,20.11
2022-08-19T04:22:35.576Z,20.14
2022-08-19T04:25:04.170Z,20.14
2022-08-19T04:27:32.767Z,20.21
2022-08-19T04:30:00.997Z,20.23
2022-08-19T04:32:32.943Z,20.25
2022-08-19T04:35:17.609Z,20.29
2022-08-19T04:37:47.547Z,20.35
2022-08-19T04:40:37.215Z,20.38
2022-08-19T04:43:05.468Z,20.38
2022-08-19T04:45:39.456Z,20.38
2022-08-19T04:48:26.533Z,20.36
2022-08-19T04:51:00.637Z,20.32
2022-08-19T04:53:37.433Z,20.31
2022-08-19T04:56:12.416Z,20.31
2022-08-19T04:58:43.499Z,20.31
2022-08-19T05:01:15.755Z,20.32
2022-08-19T05:03:44.034Z,20.39
2022-08-19T05:06:15.903Z,20.43
2022-08-19T05:08:45.199Z,20.40
2022-08-19T05:11:26.409Z,20.38
2022-08-19T05:13:58.796Z,20.33
2022-08-19T05:16:28.464Z,20.38
2022-08-19T05:19:15.699Z,20.29
2022-08-19T05:22:03.340Z,20.22
2022-08-19T05:24:34.316Z,20.28
2022-08-19T05:27:06.567Z,20.42
2022-08-19T05:29:36.381Z,20.50
2022-08-19T05:32:09.679Z,20.62
2022-08-19T05:34:39.136Z,20.70
2022-08-19T05:37:08.582Z,20.69
2022-08-19T05:39:39.247Z,20.67
2022-08-19T05:42:10.081Z,20.80
2022-08-19T05:44:44.973Z,20.83
2022-08-19T05:47:14.452Z,20.84
2022-08-19T05:49:43.658Z,20.90
2022-08-19T05:52:18.902Z,20.92
2022-08-19T05:54:51.225Z,20.88
2022-08-19T05:57:20.686Z,20.89
2022-08-19T05:59:53.111Z,20.86
2022-08-19T06:02:28.652Z,20.87
2022-08-19T06:04:56.927Z,20.88
2022-08-19T06:07:25.215Z,20.86
2022-08-19T06:10:00.307Z,20.87
2022-08-19T06:12:32.724Z,20.83
2022-08-19T06:15:11.585Z,20.85
2022-08-19T06:17:40.310Z,20.78
2022-08-19T06:20:12.959Z,20.76
2022-08-19T06:22:42.908Z,20.72
2022-08-19T06:25:12.337Z,20.66
2022-08-19T06:27:53.363Z,20.62
2022-08-19T06:30:29.576Z,20.57
2022-08-19T06:32:57.840Z,20.48
2022-08-19T06:35:26.403Z,20.45
2022-08-19T06:37:55.469Z,20.47
2022-08-19T06:40:23.943Z,20.44
2022-08-19T06:42:54.723Z,20.38
2022-08-19T06:45:35.346Z,20.40
2022-08-19T06:48:04.579Z,20.41
2022-08-19T06:50:32.760Z,20.43
2022-08-19T06:53:04.641Z,20.48
2022-08-19T06:55:33.354Z,20.51
2022-08-19T06:58:05.580Z,20.53
2022-08-19T07:00:34.827Z,20.50
2022-08-19T07:03:07.730Z,20.49
2022-08-19T07:05:45.452Z,20.53
2022-08-19T07:08:14.904Z,20.55
2022-08-19T07:10:47.481Z,20.58
2022-08-19T07:13:15.811Z,20.56
2022-08-19T07:15:43.980Z,20.56
2022-08-19T07:18:13.275Z,20.52
2022-08-19T07:20:44.624Z,20.52
2022-08-19T07:23:16.281Z,20.49
2022-08-19T07:25:53.186Z,20.49
2022-08-19T07:28:24.745Z,20.50
2022-08-19T07:30:53.931Z,20.46
2022-08-19T07:33:23.695Z,20.42
2022-08-19T07:35:51.828Z,20.37
2022-08-19T07:38:19.987Z,20.33
2022-08-19T07:40:48.143Z,20.32
2022-08-19T07:43:17.706Z,20.31
2022-08-19T07:45:46.436Z,20.31
2022-08-19T07:48:15.443Z,20.32
2022-08-19T07:50:43.864Z,20.39
2022-08-19T07:53:13.237Z,20.41
2022-08-19T07:55:43.803Z,20.46
2022-08-19T07:58:16.259Z,20.46
2022-08-19T08:00:47.699Z,20.44
2022-08-19T08:03:18.998Z,20.48
2022-08-19T08:06:05.950Z,20.44
2022-08-19T08:08:52.756Z,20.48
2022-08-19T08:11:24.150Z,20.45
2022-08-19T08:14:00.932Z,20.46
2022-08-19T08:16:32.211Z,20.41
2022-08-19T08:19:01.353Z,20.44
2022-08-19T08:21:29.693Z,20.42
2022-08-19T08:26:31.043Z,20.42
2022-08-19T08:29:03.349Z,20.39
2022-08-19T08:31:43.430Z,20.34
2022-08-19T08:34:13.897Z,20.29
2022-08-19T08:36:46.847Z,20.29
2022-08-19T08:39:17.741Z,20.28
2022-08-19T08:42:09.764Z,20.28
2022-08-19T08:44:51.170Z,20.21
2022-08-19T08:47:23.831Z,20.15
2022-08-19T08:50:04.499Z,20.21
2022-08-19T08:52:43.850Z,20.19
2022-08-19T08:55:20.468Z,20.22
2022-08-19T08:57:56.062Z,20.30
2022-08-19T09:00:34.532Z,20.27
2022-08-19T09:03:04.518Z,20.25
2022-08-19T09:06:17.445Z,20.15
2022-08-19T09:09:12.182Z,20.03
2022-08-19T09:11:59.333Z,20.02
2022-08-19T09:14:52.183Z,20.06
2022-08-19T09:17:31.727Z,20.08
2022-08-19T09:20:09.039Z,19.96
2022-08-19T09:22:44.957Z,20.03
2022-08-19T09:25:16.607Z,20.05
2022-08-19T09:27:45.366Z,20.05
2022-08-19T09:30:18.548Z,20.06
2022-08-19T09:32:47.487Z,20.01
2022-08-19T09:35:26.472Z,19.97
2022-08-19T09:37:59.497Z,19.95
2022-08-19T09:40:37.739Z,19.91
2022-08-19T09:43:09.852Z,19.95
2022-08-19T09:45:39.676Z,20.05
2022-08-19T09:48:09.524Z,20.04
2022-08-19T09:50:52.045Z,20.13
2022-08-19T09:53:23.416Z,20.22
2022-08-19T09:55:56.084Z,20.20
2022-08-19T09:58:28.818Z,20.32
2022-08-19T10:00:58.269Z,20.34
2022-08-19T10:03:30.092Z,20.38
2022-08-19T10:06:00.827Z,20.34
2022-08-19T10:08:35.984Z,20.44
2022-08-19T10:11:28.047Z,20.41
2022-08-19T10:13:53.722Z,20.53
2022-08-19T10:16:30.028Z,20.57
2022-08-19T10:18:59.302Z,20.65
2022-08-19T10:21:32.032Z,20.67
2022-08-19T10:24:04.982Z,20.72
2022-08-19T10:26:42.611Z,20.84
2022-08-19T10:29:10.815Z,20.87
2022-08-19T10:31:59.903Z,20.90
2022-08-19T10:34:28.626Z,20.95
2022-08-19T10:37:00.747Z,21.06
2022-08-19T10:39:43.485Z,21.02
2022-08-19T10:42:13.941Z,21.11
2022-08-19T10:44:42.808Z,21.17
2022-08-19T10:47:24.630Z,21.23
2022-08-19T10:50:13.329Z,21.32
2022-08-19T10:52:49.313Z,21.37
2022-08-19T10:55:43.271Z,21.50
2022-08-19T10:58:13.387Z,21.73
2022-08-19T11:00:43.627Z,21.93
2022-08-19T11:03:12.547Z,22.17
2022-08-19T11:05:40.990Z,22.37
2022-08-19T11:08:23.222Z,22.55
2022-08-19T11:10:57.776Z,22.76
2022-08-19T11:13:29.577Z,22.97
2022-08-19T11:16:07.310Z,23.36
2022-08-19T11:18:41.351Z,23.93
2022-08-19T11:21:18.197Z,24.26
2022-08-19T11:23:48.100Z,24.67
2022-08-19T11:26:18.447Z,25.62
2022-08-19T11:28:46.767Z,25.90
2022-08-19T11:31:21.406Z,25.78
2022-08-19T11:33:53.499Z,25.60
2022-08-19T11:36:23.512Z,25.20
2022-08-19T11:38:52.308Z,24.84
2022-08-19T11:41:26.643Z,24.62
2022-08-19T11:43:56.159Z,24.76
2022-08-19T11:46:26.970Z,25.36
2022-08-19T11:48:55.385Z,25.36
2022-08-19T11:51:25.718Z,25.72
2022-08-19T11:53:55.415Z,25.99
2022-08-19T11:56:25.101Z,26.23
2022-08-19T11:58:54.429Z,26.46
2022-08-19T12:01:24.596Z,27.09
2022-08-19T12:03:56.359Z,26.87
2022-08-19T12:06:29.429Z,27.11
2022-08-19T12:08:58.299Z,26.89
2022-08-19T12:11:26.943Z,27.00
2022-08-19T12:13:56.045Z,27.02
2022-08-19T12:16:30.447Z,26.05
2022-08-19T12:19:00.012Z,26.19
2022-08-19T12:21:29.546Z,26.13
2022-08-19T12:23:59.737Z,26.55
2022-08-19T12:26:30.516Z,27.26
2022-08-19T12:29:00.537Z,26.74
2022-08-19T12:31:30.057Z,26.64
2022-08-19T12:33:58.978Z,26.62
2022-08-19T12:36:27.180Z,26.99
2022-08-19T12:38:55.346Z,26.92
2022-08-19T12:41:23.755Z,26.67
2022-08-19T12:43:52.164Z,26.34
2022-08-19T12:46:23.022Z,26.27
2022-08-19T12:48:56.209Z,26.63
2022-08-19T12:51:24.556Z,27.09
2022-08-19T12:53:52.684Z,26.78
2022-08-19T12:56:23.157Z,26.62
2022-08-19T12:58:52.809Z,26.37
2022-08-19T13:01:22.871Z,26.02
2022-08-19T13:03:53.535Z,25.93
2022-08-19T13:06:24.926Z,25.70
2022-08-19T13:08:57.715Z,25.65
2022-08-19T13:11:27.653Z,25.71
2022-08-19T13:13:56.260Z,25.84
2022-08-19T13:16:24.709Z,26.17
2022-08-19T13:18:53.154Z,26.14
2022-08-19T13:21:24.744Z,26.34
2022-08-19T13:23:54.148Z,26.21
2022-08-19T13:26:22.412Z,26.51
2022-08-19T13:29:09.276Z,26.55
2022-08-19T13:31:59.030Z,27.09
2022-08-19T13:34:31.696Z,27.27
2022-08-19T13:37:01.162Z,26.74
2022-08-19T13:39:29.712Z,26.68
2022-08-19T13:41:58.555Z,26.69
2022-08-19T13:44:27.419Z,26.51
2022-08-19T13:46:56.024Z,26.37
2022-08-19T13:49:24.244Z,26.31
2022-08-19T13:51:52.517Z,26.21
2022-08-19T13:54:20.633Z,25.87
2022-08-19T13:56:48.753Z,25.84
2022-08-19T13:59:18.066Z,25.93
2022-08-19T14:01:46.401Z,25.57
2022-08-19T14:04:14.651Z,25.65
2022-08-19T14:06:42.891Z,25.74
2022-08-19T14:09:11.132Z,25.78
2022-08-19T14:11:39.277Z,26.09
2022-08-19T14:14:07.480Z,26.67
2022-08-19T14:16:35.618Z,27.21
2022-08-19T14:19:04.211Z,27.54
2022-08-19T14:21:32.353Z,27.51
2022-08-19T14:24:03.748Z,27.33
2022-08-19T14:26:31.922Z,27.34
2022-08-19T14:29:02.380Z,27.28
2022-08-19T14:31:31.046Z,27.35
2022-08-19T14:33:59.548Z,27.23
2022-08-19T14:36:27.771Z,27.25
2022-08-19T14:38:55.994Z,27.32
2022-08-19T14:41:25.214Z,27.17
2022-08-19T14:43:54.742Z,27.03
2022-08-19T14:46:26.351Z,26.85
2022-08-19T14:48:57.346Z,26.61
2022-08-19T14:51:28.739Z,26.73
2022-08-19T14:53:57.178Z,26.76
2022-08-19T14:56:29.165Z,26.85
2022-08-19T14:59:01.330Z,26.68
2022-08-19T15:01:30.011Z,26.69
2022-08-19T15:03:58.205Z,26.55
2022-08-19T15:06:27.417Z,26.48
2022-08-19T15:08:57.766Z,26.48
2022-08-19T15:11:30.131Z,26.18
2022-08-19T15:13:58.426Z,26.31
2022-08-19T15:16:28.788Z,26.24
2022-08-19T15:18:59.945Z,26.23
2022-08-19T15:21:29.110Z,26.31
2022-08-19T15:23:59.433Z,26.38
2022-08-19T15:26:33.370Z,26.39
2022-08-19T15:29:03.089Z,26.34
2022-08-19T15:31:36.459Z,26.29
2022-08-19T15:34:06.856Z,26.19
2022-08-19T15:36:38.344Z,26.10
2022-08-19T15:39:07.391Z,26.11
2022-08-19T15:41:37.069Z,26.15
2022-08-19T15:44:10.019Z,26.19
2022-08-19T15:46:43.470Z,26.23
2022-08-19T15:49:13.976Z,26.13
2022-08-19T15:51:44.031Z,25.95
2022-08-19T15:54:16.285Z,25.89
2022-08-19T15:57:03.162Z,25.84
2022-08-19T15:59:50.217Z,25.95
2022-08-19T16:02:41.369Z,25.95
2022-08-19T16:05:31.021Z,25.97
2022-08-19T16:07:59.436Z,26.00
2022-08-19T16:10:28.526Z,26.07
2022-08-19T16:12:58.405Z,26.00
2022-08-19T16:15:28.622Z,25.94
2022-08-19T16:17:58.068Z,26.00
2022-08-19T16:20:27.499Z,26.16
2022-08-19T16:22:58.517Z,26.05
2022-08-19T16:25:30.002Z,26.00
2022-08-19T16:28:07.258Z,25.93
2022-08-19T16:30:41.416Z,25.88
2022-08-19T16:33:10.727Z,25.92
2022-08-19T16:35:39.125Z,25.92
2022-08-19T16:38:07.429Z,25.90
2022-08-19T16:40:35.697Z,25.90
2022-08-19T16:43:04.459Z,25.72
2022-08-19T16:45:32.727Z,25.60
2022-08-19T16:48:01.582Z,25.64
2022-08-19T16:50:48.157Z,25.62
2022-08-19T16:53:19.347Z,25.57
2022-08-19T16:55:50.891Z,25.50
2022-08-19T16:58:19.128Z,25.37
2022-08-19T17:00:49.845Z,25.36
2022-08-19T17:03:19.715Z,25.35
2022-08-19T17:06:02.541Z,25.33
2022-08-19T17:08:34.082Z,25.25
2022-08-19T17:11:17.739Z,25.25
2022-08-19T17:13:48.080Z,25.20
2022-08-19T17:16:19.811Z,25.05
2022-08-19T17:18:52.242Z,24.99
2022-08-19T17:21:27.830Z,24.84
2022-08-19T17:23:57.474Z,24.77
2022-08-19T17:26:26.615Z,24.68
2022-08-19T17:28:57.325Z,24.62
2022-08-19T17:31:29.081Z,24.56
2022-08-19T17:33:58.880Z,24.43
2022-08-19T17:36:30.164Z,24.38
2022-08-19T17:39:01.226Z,24.33
2022-08-19T17:41:31.627Z,24.24
2022-08-19T17:44:01.196Z,24.20
2022-08-19T17:46:30.455Z,24.10
2022-08-19T17:48:58.923Z,23.96
2022-08-19T17:51:45.464Z,23.85
2022-08-19T17:54:18.729Z,23.67
2022-08-19T17:56:47.120Z,23.52
2022-08-19T17:59:18.453Z,23.43
2022-08-19T18:01:52.301Z,23.37
2022-08-19T18:04:26.068Z,23.39
2022-08-19T18:06:55.895Z,23.42
2022-08-19T18:09:26.795Z,23.31
2022-08-19T18:11:57.907Z,23.17
2022-08-19T18:14:33.695Z,23.09
2022-08-19T18:17:06.326Z,22.97
2022-08-19T18:19:41.166Z,22.88
2022-08-19T18:22:12.185Z,22.84
2022-08-19T18:24:45.841Z,22.74
2022-08-19T18:27:16.934Z,22.68
2022-08-19T18:29:45.928Z,22.54
2022-08-19T18:32:23.592Z,22.45
2022-08-19T18:34:56.209Z,22.40
2022-08-19T18:37:26.235Z,22.37
2022-08-19T18:40:13.460Z,22.30
2022-08-19T18:43:04.571Z,22.24
2022-08-19T18:45:51.329Z,22.15
2022-08-19T18:48:38.556Z,22.10
2022-08-19T18:51:07.390Z,22.04
2022-08-19T18:53:39.093Z,22.00
2022-08-19T18:56:10.012Z,21.94
2022-08-19T18:58:39.544Z,21.86
2022-08-19T19:01:14.193Z,21.85
2022-08-19T19:03:45.744Z,21.83
2022-08-19T19:06:20.503Z,21.81
2022-08-19T19:08:50.207Z,21.72
2022-08-19T19:11:23.235Z,21.70
2022-08-19T19:13:51.919Z,21.65
2022-08-19T19:16:24.482Z,21.60
2022-08-19T19:18:53.291Z,21.57
2022-08-19T19:21:24.435Z,21.51
2022-08-19T19:23:54.817Z,21.48
2022-08-19T19:26:23.049Z,21.45
2022-08-19T19:28:51.600Z,21.42
2022-08-19T19:31:26.562Z,21.35
2022-08-19T19:33:56.230Z,21.36
2022-08-19T19:36:24.495Z,21.37
2022-08-19T19:38:53.064Z,21.37
2022-08-19T19:41:26.612Z,21.35
2022-08-19T19:44:31.001Z,21.32
2022-08-19T19:46:47.052Z,21.28
2022-08-19T19:49:15.922Z,21.26
2022-08-19T19:51:44.347Z,21.22
2022-08-19T19:54:18.657Z,21.24
2022-08-19T19:56:50.405Z,21.21
2022-08-19T19:59:18.719Z,21.22
2022-08-19T20:01:47.277Z,21.26
2022-08-19T20:04:16.613Z,21.27
2022-08-19T20:06:46.246Z,21.29
2022-08-19T20:09:19.640Z,21.29
2022-08-19T20:11:53.420Z,21.26
2022-08-19T20:14:23.532Z,21.24
2022-08-19T20:16:52.874Z,21.27
2022-08-19T20:19:26.041Z,21.28
2022-08-19T20:21:55.829Z,21.28
2022-08-19T20:24:28.016Z,21.20
2022-08-19T20:26:56.207Z,21.10
2022-08-19T20:29:39.610Z,21.03
2022-08-19T20:32:10.001Z,20.95
2022-08-19T20:34:39.330Z,20.95
2022-08-19T20:37:10.289Z,20.99
2022-08-19T20:39:38.730Z,20.98
2022-08-19T20:42:07.121Z,20.96
2022-08-19T20:44:36.082Z,20.90
2022-08-19T20:47:04.414Z,20.94
2022-08-19T20:49:32.843Z,20.93
2022-08-19T20:52:01.622Z,20.85
2022-08-19T20:54:30.802Z,20.80
2022-08-19T20:56:59.131Z,20.71
2022-08-19T20:59:27.354Z,20.64
2022-08-19T21:01:55.646Z,20.65
2022-08-19T21:04:24.247Z,20.67
2022-08-19T21:06:52.426Z,20.66
2022-08-19T21:09:39.484Z,20.78
2022-08-19T21:12:09.308Z,20.69
2022-08-19T21:14:43.103Z,20.74
2022-08-19T21:17:12.032Z,20.76
2022-08-19T21:19:40.340Z,20.71
2022-08-19T21:22:09.181Z,20.61
2022-08-19T21:24:38.385Z,20.61
2022-08-19T21:27:06.800Z,20.64
2022-08-19T21:29:37.433Z,20.65
2022-08-19T21:32:05.793Z,20.60
2022-08-19T21:34:34.304Z,20.52
2022-08-19T21:37:02.479Z,20.46
2022-08-19T21:39:30.703Z,20.35
2022-08-19T21:41:58.930Z,20.37
2022-08-19T21:44:27.199Z,20.30
2022-08-19T21:46:55.574Z,20.18
2022-08-19T21:49:24.060Z,20.12
2022-08-19T21:51:52.681Z,20.13
2022-08-19T21:54:20.907Z,20.09
2022-08-19T21:56:49.216Z,20.11
2022-08-19T21:59:17.722Z,20.11
2022-08-19T22:01:50.458Z,20.10
2022-08-19T22:04:22.374Z,20.09
2022-08-19T22:06:50.623Z,20.05
2022-08-19T22:09:18.833Z,20.03
2022-08-19T22:11:47.048Z,20.05
2022-08-19T22:14:15.428Z,20.04
2022-08-19T22:16:43.690Z,20.14
2022-08-19T22:19:12.890Z,20.13
2022-08-19T22:21:41.383Z,20.01
2022-08-19T22:24:12.014Z,19.99
2022-08-19T22:26:40.194Z,19.91
2022-08-19T22:29:08.418Z,19.88
2022-08-19T22:31:37.688Z,19.86
2022-08-19T22:34:06.695Z,19.82
2022-08-19T22:36:35.464Z,19.82
2022-08-19T22:39:05.097Z,19.79
2022-08-19T22:41:34.143Z,19.73
2022-08-19T22:44:03.850Z,19.68
2022-08-19T22:46:33.715Z,19.68
2022-08-19T22:49:01.944Z,19.67
2022-08-19T22:51:50.170Z,19.68
2022-08-19T22:54:18.662Z,19.69
2022-08-19T22:56:46.910Z,19.76
2022-08-19T22:59:15.110Z,19.78
2022-08-19T23:01:46.380Z,19.76
2022-08-19T23:04:17.403Z,19.74
2022-08-19T23:06:45.576Z,19.82
2022-08-19T23:09:16.858Z,19.83
2022-08-19T23:11:46.251Z,19.77
2022-08-19T23:14:16.785Z,19.71
2022-08-19T23:16:50.839Z,19.65
2022-08-19T23:19:20.497Z,19.61
2022-08-19T23:21:48.944Z,19.67
2022-08-19T23:24:17.370Z,19.63
2022-08-19T23:27:05.491Z,19.58
2022-08-19T23:29:52.091Z,19.55
2022-08-19T23:32:22.307Z,19.53
2022-08-19T23:34:50.506Z,19.54
2022-08-19T23:37:18.929Z,19.50
2022-08-19T23:39:47.164Z,19.50
2022-08-19T23:42:15.343Z,19.50
2022-08-19T23:44:51.432Z,19.54
2022-08-19T23:47:21.473Z,19.52
2022-08-19T23:49:50.694Z,19.44
2022-08-19T23:52:19.354Z,19.34
2022-08-19T23:54:47.621Z,19.36
2022-08-19T23:57:15.856Z,19.37
2022-08-19T23:59:47.403Z,19.32
